createdAt,value
2023-02-22T00:00:49.973Z,101637.75
2023-02-22T00:03:25.088Z,101641.94
2023-02-22T00:05:55.348Z,101646.25
2023-02-22T00:08:30.446Z,101653.38
2023-02-22T00:11:01.070Z,101652.44
2023-02-22T00:13:30.279Z,101649.97
2023-02-22T00:15:59.982Z,101652.53
2023-02-22T00:18:29.470Z,101644.34
2023-02-22T00:21:00.263Z,101653.94
2023-02-22T00:23:30.341Z,101655.38
2023-02-22T00:26:01.223Z,101650.66
2023-02-22T00:28:30.783Z,101648.38
2023-02-22T00:30:59.828Z,101646.78
2023-02-22T00:33:28.186Z,101651.22
2023-02-22T00:35:56.392Z,101653.09
2023-02-22T00:38:24.981Z,101636.72
2023-02-22T00:40:53.323Z,101646.59
2023-02-22T00:43:23.077Z,101637.25
2023-02-22T00:45:51.331Z,101637.25
2023-02-22T00:48:19.547Z,101627.06
2023-02-22T00:50:49.274Z,101625.34
2023-02-22T00:53:17.656Z,101636.50
2023-02-22T00:55:45.892Z,101629.13
2023-02-22T00:58:14.062Z,101628.88
2023-02-22T01:00:44.436Z,101632.50
2023-02-22T01:03:14.830Z,101630.97
2023-02-22T01:05:43.995Z,101626.16
2023-02-22T01:08:13.853Z,101609.47
2023-02-22T01:10:42.344Z,101600.03
2023-02-22T01:13:12.584Z,101597.97
2023-02-22T01:15:44.994Z,101604.44
2023-02-22T01:18:17.419Z,101613.28
2023-02-22T01:20:48.116Z,101609.41
2023-02-22T01:23:17.590Z,101614.94
2023-02-22T01:25:46.130Z,101611.03
2023-02-22T01:28:15.298Z,101610.56
2023-02-22T01:30:46.578Z,101606.31
2023-02-22T01:33:17.581Z,101608.19
2023-02-22T01:35:46.451Z,101591.84
2023-02-22T01:38:15.331Z,101597.75
2023-02-22T01:40:47.971Z,101594.69
2023-02-22T01:43:20.055Z,101579.97
2023-02-22T01:46:00.760Z,101583.59
2023-02-22T01:48:36.928Z,101571.97
2023-02-22T01:51:10.755Z,101581.34
2023-02-22T01:53:42.659Z,101580.88
2023-02-22T01:56:11.488Z,101584.25
2023-02-22T01:58:42.484Z,101576.16
2023-02-22T02:01:13.322Z,101579.72
2023-02-22T02:03:42.568Z,101574.69
2023-02-22T02:06:14.030Z,101575.03
2023-02-22T02:08:51.996Z,101562.25
2023-02-22T02:11:22.513Z,101566.09
2023-02-22T02:13:52.598Z,101574.31
2023-02-22T02:16:23.138Z,101568.81
2023-02-22T02:18:52.439Z,101563.53
2023-02-22T02:21:47.678Z,101558.53
2023-02-22T02:24:46.010Z,101555.56
2023-02-22T02:27:19.380Z,101547.69
2023-02-22T02:30:23.662Z,101553.97
2023-02-22T02:33:00.359Z,101548.47
2023-02-22T02:35:43.244Z,101536.53
2023-02-22T02:38:27.122Z,101541.19
2023-02-22T02:41:01.440Z,101542.75
2023-02-22T02:43:32.909Z,101545.75
2023-02-22T02:46:07.277Z,101536.31
2023-02-22T02:48:40.434Z,101537.63
2023-02-22T02:51:14.786Z,101527.53
2023-02-22T02:53:47.184Z,101525.16
2023-02-22T02:56:15.818Z,101519.09
2023-02-22T02:58:50.449Z,101511.78
2023-02-22T03:01:34.461Z,101518.88
2023-02-22T03:04:26.510Z,101499.66
2023-02-22T03:07:11.367Z,101511.28
2023-02-22T03:09:47.730Z,101509.69
2023-02-22T03:12:22.553Z,101508.09
2023-02-22T03:15:01.693Z,101507.84
2023-02-22T03:17:41.576Z,101515.84
2023-02-22T03:20:18.075Z,101502.63
2023-02-22T03:22:53.581Z,101502.88
2023-02-22T03:25:26.213Z,101495.72
2023-02-22T03:28:00.190Z,101499.47
2023-02-22T03:30:33.676Z,101488.06
2023-02-22T03:33:09.270Z,101491.72
2023-02-22T03:35:42.616Z,101484.97
2023-02-22T03:38:13.759Z,101488.03
2023-02-22T03:40:45.287Z,101485.50
2023-02-22T03:43:17.183Z,101484.63
2023-02-22T03:45:47.184Z,101468.59
2023-02-22T03:48:20.897Z,101475.44
2023-02-22T03:50:51.369Z,101472.81
2023-02-22T03:53:20.510Z,101478.88
2023-02-22T03:55:52.074Z,101479.00
2023-02-22T03:58:23.306Z,101474.38
2023-02-22T04:00:53.387Z,101477.94
2023-02-22T04:03:23.149Z,101463.34
2023-02-22T04:05:52.984Z,101458.53
2023-02-22T04:08:21.420Z,101471.41
2023-02-22T04:10:49.784Z,101469.66
2023-02-22T04:13:18.133Z,101467.94
2023-02-22T04:15:46.564Z,101465.34
2023-02-22T04:18:15.515Z,101459.06
2023-02-22T04:20:44.764Z,101461.66
2023-02-22T04:23:17.045Z,101452.63
2023-02-22T04:25:45.630Z,101462.38
2023-02-22T04:28:14.613Z,101465.97
2023-02-22T04:30:44.072Z,101463.38
2023-02-22T04:33:12.689Z,101459.44
2023-02-22T04:35:40.971Z,101442.97
2023-02-22T04:38:11.587Z,101453.25
2023-02-22T04:40:41.779Z,101457.53
2023-02-22T04:43:10.621Z,101452.28
2023-02-22T04:45:39.291Z,101436.97
2023-02-22T04:48:07.618Z,101436.47
2023-02-22T04:50:35.803Z,101438.78
2023-02-22T04:53:04.860Z,101435.53
2023-02-22T04:55:34.336Z,101428.16
2023-02-22T04:58:05.176Z,101417.75
2023-02-22T05:00:34.700Z,101410.66
2023-02-22T05:03:02.962Z,101415.22
2023-02-22T05:05:31.941Z,101403.31
2023-02-22T05:08:00.624Z,101411.56
2023-02-22T05:10:29.764Z,101408.63
2023-02-22T05:12:58.348Z,101410.00
2023-02-22T05:15:28.320Z,101399.44
2023-02-22T05:17:56.889Z,101409.69
2023-02-22T05:20:28.778Z,101405.44
2023-02-22T05:22:57.774Z,101395.94
2023-02-22T05:25:27.440Z,101386.34
2023-02-22T05:27:58.035Z,101405.94
2023-02-22T05:30:30.265Z,101403.25
2023-02-22T05:32:59.325Z,101398.16
2023-02-22T05:35:28.991Z,101396.75
2023-02-22T05:37:58.897Z,101388.28
2023-02-22T05:40:28.249Z,101393.44
2023-02-22T05:42:59.650Z,101379.47
2023-02-22T05:45:31.844Z,101373.25
2023-02-22T05:48:02.244Z,101383.22
2023-02-22T05:50:30.841Z,101375.44
2023-02-22T05:52:59.569Z,101374.22
2023-02-22T05:55:28.016Z,101366.19
2023-02-22T05:57:58.331Z,101370.13
2023-02-22T06:00:31.222Z,101362.72
2023-02-22T06:03:01.572Z,101355.66
2023-02-22T06:05:30.594Z,101354.91
2023-02-22T06:08:00.545Z,101354.81
2023-02-22T06:10:29.438Z,101346.72
2023-02-22T06:12:58.574Z,101352.84
2023-02-22T06:15:28.735Z,101356.31
2023-02-22T06:17:59.280Z,101362.22
2023-02-22T06:20:29.696Z,101356.41
2023-02-22T06:23:01.292Z,101356.25
2023-02-22T06:25:32.298Z,101354.22
2023-02-22T06:28:00.985Z,101359.00
2023-02-22T06:30:30.012Z,101350.59
2023-02-22T06:33:00.317Z,101358.16
2023-02-22T06:35:28.988Z,101357.41
2023-02-22T06:37:57.475Z,101351.94
2023-02-22T06:40:29.762Z,101355.13
2023-02-22T06:42:59.984Z,101345.50
2023-02-22T06:45:28.688Z,101373.91
2023-02-22T06:47:57.141Z,101360.34
2023-02-22T06:50:29.227Z,101375.69
2023-02-22T06:52:58.201Z,101368.72
2023-02-22T06:55:29.156Z,101373.28
2023-02-22T06:57:58.106Z,101372.41
2023-02-22T07:00:28.676Z,101374.44
2023-02-22T07:02:58.100Z,101363.31
2023-02-22T07:05:28.639Z,101360.50
2023-02-22T07:08:03.901Z,101368.75
2023-02-22T07:10:33.859Z,101366.56
2023-02-22T07:13:02.963Z,101347.72
2023-02-22T07:15:34.716Z,101362.13
2023-02-22T07:18:03.307Z,101365.41
2023-02-22T07:20:34.030Z,101365.03
2023-02-22T07:23:02.681Z,101356.88
2023-02-22T07:25:31.268Z,101363.44
2023-02-22T07:27:59.720Z,101372.28
2023-02-22T07:30:31.177Z,101362.88
2023-02-22T07:33:01.236Z,101363.56
2023-02-22T07:35:30.964Z,101356.28
2023-02-22T07:38:27.164Z,101359.06
2023-02-22T07:40:58.045Z,101349.13
2023-02-22T07:43:27.444Z,101343.63
2023-02-22T07:45:57.716Z,101358.06
2023-02-22T07:48:28.971Z,101360.34
2023-02-22T07:50:57.704Z,101364.06
2023-02-22T07:53:30.468Z,101358.06
2023-02-22T07:55:58.906Z,101358.53
2023-02-22T07:58:28.859Z,101357.31
2023-02-22T08:00:57.474Z,101356.53
2023-02-22T08:03:27.926Z,101354.06
2023-02-22T08:06:00.622Z,101360.34
2023-02-22T08:08:31.095Z,101343.28
2023-02-22T08:10:59.660Z,101330.59
2023-02-22T08:13:28.302Z,101339.00
2023-02-22T08:15:57.483Z,101346.41
2023-02-22T08:18:26.667Z,101354.19
2023-02-22T08:20:55.845Z,101358.81
2023-02-22T08:23:27.108Z,101364.31
2023-02-22T08:25:57.241Z,101368.97
2023-02-22T08:28:26.429Z,101369.97
2023-02-22T08:30:55.170Z,101366.72
2023-02-22T08:33:23.701Z,101369.75
2023-02-22T08:35:53.068Z,101360.50
2023-02-22T08:38:24.455Z,101361.16
2023-02-22T08:40:53.064Z,101361.72
2023-02-22T08:43:24.162Z,101360.25
2023-02-22T08:45:57.638Z,101349.38
2023-02-22T08:48:26.738Z,101350.34
2023-02-22T08:50:55.229Z,101342.38
2023-02-22T08:53:23.824Z,101351.69
2023-02-22T08:55:52.842Z,101354.44
2023-02-22T08:58:22.765Z,101355.63
2023-02-22T09:00:51.246Z,101357.38
2023-02-22T09:03:19.645Z,101350.91
2023-02-22T09:05:48.548Z,101349.41
2023-02-22T09:08:17.916Z,101347.56
2023-02-22T09:10:46.649Z,101346.34
2023-02-22T09:13:15.237Z,101345.00
2023-02-22T09:15:45.344Z,101341.63
2023-02-22T09:18:18.092Z,101332.34
2023-02-22T09:20:47.948Z,101339.44
2023-02-22T09:23:16.730Z,101336.97
2023-02-22T09:25:45.420Z,101325.56
2023-02-22T09:28:14.540Z,101323.50
2023-02-22T09:30:44.541Z,101320.63
2023-02-22T09:33:15.536Z,101324.84
2023-02-22T09:35:46.523Z,101314.25
2023-02-22T09:38:16.954Z,101305.06
2023-02-22T09:40:50.123Z,101301.38
2023-02-22T09:43:40.640Z,101304.75
2023-02-22T09:46:27.248Z,101307.38
2023-02-22T09:49:06.407Z,101296.91
2023-02-22T09:51:41.291Z,101306.47
2023-02-22T09:54:19.484Z,101304.75
2023-02-22T09:56:50.056Z,101297.31
2023-02-22T09:59:24.444Z,101287.03
2023-02-22T10:02:06.748Z,101281.81
2023-02-22T10:04:42.718Z,101275.09
2023-02-22T10:07:19.702Z,101272.25
2023-02-22T10:09:50.848Z,101271.91
2023-02-22T10:12:26.899Z,101262.97
2023-02-22T10:15:11.942Z,101251.13
2023-02-22T10:17:51.018Z,101248.69
2023-02-22T10:20:37.226Z,101258.56
2023-02-22T10:23:12.239Z,101245.84
2023-02-22T10:25:41.065Z,101243.31
2023-02-22T10:28:14.772Z,101245.72
2023-02-22T10:30:47.196Z,101249.75
2023-02-22T10:33:19.974Z,101248.59
2023-02-22T10:35:48.725Z,101253.50
2023-02-22T10:38:20.592Z,101248.16
2023-02-22T10:40:52.633Z,101257.78
2023-02-22T10:43:20.943Z,101268.81
2023-02-22T10:45:50.295Z,101258.38
2023-02-22T10:48:21.217Z,101253.09
2023-02-22T10:50:50.713Z,101249.06
2023-02-22T10:53:18.973Z,101260.59
2023-02-22T10:56:12.933Z,101264.03
2023-02-22T10:58:48.163Z,101254.59
2023-02-22T11:01:21.768Z,101260.91
2023-02-22T11:04:11.817Z,101259.16
2023-02-22T11:06:44.414Z,101246.63
2023-02-22T11:09:15.649Z,101244.09
2023-02-22T11:11:46.007Z,101227.69
2023-02-22T11:14:25.808Z,101222.91
2023-02-22T11:16:57.064Z,101218.66
2023-02-22T11:19:29.011Z,101210.03
2023-02-22T11:21:59.725Z,101217.47
2023-02-22T11:24:37.218Z,101211.75
2023-02-22T11:27:23.522Z,101196.84
2023-02-22T11:29:52.814Z,101203.19
2023-02-22T11:32:23.322Z,101243.16
2023-02-22T11:35:08.377Z,101232.44
2023-02-22T11:37:38.659Z,101240.88
2023-02-22T11:40:19.729Z,101231.09
2023-02-22T11:42:48.238Z,101244.19
2023-02-22T11:45:21.034Z,101242.75
2023-02-22T11:47:53.179Z,101242.75
2023-02-22T11:50:37.514Z,101234.34
2023-02-22T11:53:26.262Z,101225.50
2023-02-22T11:56:12.154Z,101237.22
2023-02-22T11:58:45.800Z,101234.31
2023-02-22T12:01:23.361Z,101222.78
2023-02-22T12:04:15.888Z,101216.59
2023-02-22T12:06:53.319Z,101215.75
2023-02-22T12:09:27.972Z,101205.47
2023-02-22T12:12:05.417Z,101211.25
2023-02-22T12:14:42.047Z,101199.53
2023-02-22T12:17:43.613Z,101196.25
2023-02-22T12:20:22.758Z,101205.31
2023-02-22T12:23:02.097Z,101185.72
2023-02-22T12:25:35.092Z,101188.72
2023-02-22T12:28:23.708Z,101185.56
2023-02-22T12:30:57.682Z,101180.88
2023-02-22T12:33:30.043Z,101176.59
2023-02-22T12:36:00.767Z,101184.22
2023-02-22T12:38:37.402Z,101177.78
2023-02-22T12:41:11.460Z,101172.06
2023-02-22T12:43:45.059Z,101173.66
2023-02-22T12:46:18.590Z,101169.56
2023-02-22T12:48:55.381Z,101179.66
2023-02-22T12:51:29.556Z,101171.06
2023-02-22T12:54:06.420Z,101175.50
2023-02-22T12:56:38.624Z,101159.69
2023-02-22T12:59:13.528Z,101170.56
2023-02-22T13:01:45.437Z,101185.81
2023-02-22T13:04:20.903Z,101183.63
2023-02-22T13:07:02.744Z,101184.59
2023-02-22T13:09:45.650Z,101177.19
2023-02-22T13:12:18.517Z,101168.63
2023-02-22T13:14:59.087Z,101176.84
2023-02-22T13:17:33.582Z,101166.41
2023-02-22T13:20:08.753Z,101170.47
2023-02-22T13:22:44.190Z,101162.88
2023-02-22T13:25:18.241Z,101167.84
2023-02-22T13:27:50.047Z,101154.91
2023-02-22T13:30:23.088Z,101164.00
2023-02-22T13:33:33.127Z,101166.78
2023-02-22T13:36:12.688Z,101159.25
2023-02-22T13:39:10.390Z,101159.84
2023-02-22T13:41:55.622Z,101160.03
2023-02-22T13:44:45.176Z,101161.31
2023-02-22T13:47:30.946Z,101157.22
2023-02-22T13:50:19.667Z,101149.03
2023-02-22T13:52:49.955Z,101156.22
2023-02-22T13:55:21.051Z,101151.75
2023-02-22T13:57:51.851Z,101156.03
2023-02-22T14:00:26.209Z,101152.81
2023-02-22T14:03:03.777Z,101158.41
2023-02-22T14:05:51.142Z,101151.97
2023-02-22T14:08:42.169Z,101162.09
2023-02-22T14:11:54.343Z,101157.34
2023-02-22T14:14:24.832Z,101160.81
2023-02-22T14:17:24.798Z,101157.03
2023-02-22T14:20:21.605Z,101166.63
2023-02-22T14:22:53.051Z,101162.06
2023-02-22T14:25:36.860Z,101158.19
2023-02-22T14:28:06.779Z,101161.44
2023-02-22T14:30:38.978Z,101164.63
2023-02-22T14:33:43.178Z,101160.03
2023-02-22T14:36:13.049Z,101165.31
2023-02-22T14:38:42.144Z,101161.84
2023-02-22T14:41:10.550Z,101169.03
2023-02-22T14:43:39.735Z,101172.91
2023-02-22T14:46:13.605Z,101164.28
2023-02-22T14:48:43.151Z,101171.13
2023-02-22T14:51:21.769Z,101168.84
2023-02-22T14:53:52.900Z,101171.75
2023-02-22T14:56:24.396Z,101170.69
2023-02-22T14:58:57.876Z,101161.25
2023-02-22T15:01:47.388Z,101172.56
2023-02-22T15:04:23.029Z,101164.81
2023-02-22T15:06:51.666Z,101168.97
2023-02-22T15:09:27.625Z,101169.44
2023-02-22T15:12:13.215Z,101165.22
2023-02-22T15:14:44.841Z,101157.34
2023-02-22T15:17:19.285Z,101167.06
2023-02-22T15:19:49.323Z,101178.88
2023-02-22T15:22:22.153Z,101170.03
2023-02-22T15:24:59.316Z,101175.00
2023-02-22T15:27:28.460Z,101169.69
2023-02-22T15:29:59.586Z,101167.69
2023-02-22T15:32:36.305Z,101181.72
2023-02-22T15:35:26.522Z,101178.19
2023-02-22T15:38:01.035Z,101183.41
2023-02-22T15:40:33.460Z,101161.84
2023-02-22T15:43:03.253Z,101178.50
2023-02-22T15:45:33.767Z,101174.53
2023-02-22T15:48:03.538Z,101166.81
2023-02-22T15:50:33.926Z,101178.06
2023-02-22T15:53:04.723Z,101176.94
2023-02-22T15:55:35.359Z,101175.06
2023-02-22T15:58:13.671Z,101185.88
2023-02-22T16:00:46.835Z,101197.94
2023-02-22T16:03:19.447Z,101194.53
2023-02-22T16:05:53.586Z,101205.38
2023-02-22T16:08:23.878Z,101202.91
2023-02-22T16:11:00.248Z,101199.91
2023-02-22T16:13:34.699Z,101209.94
2023-02-22T16:16:07.084Z,101217.19
2023-02-22T16:18:42.281Z,101221.94
2023-02-22T16:21:17.618Z,101225.16
2023-02-22T16:23:48.166Z,101215.97
2023-02-22T16:26:26.695Z,101228.81
2023-02-22T16:28:57.712Z,101225.38
2023-02-22T16:31:28.027Z,101229.22
2023-02-22T16:33:58.019Z,101231.88
2023-02-22T16:36:38.893Z,101232.50
2023-02-22T16:39:08.807Z,101227.75
2023-02-22T16:41:39.030Z,101230.38
2023-02-22T16:44:10.599Z,101230.22
2023-02-22T16:46:39.062Z,101240.84
2023-02-22T16:49:10.391Z,101243.34
2023-02-22T16:51:42.775Z,101235.59
2023-02-22T16:54:13.160Z,101231.31
2023-02-22T16:56:44.768Z,101222.56
2023-02-22T16:59:15.498Z,101226.28
2023-02-22T17:01:44.438Z,101235.72
2023-02-22T17:04:17.901Z,101237.09
2023-02-22T17:06:46.321Z,101246.22
2023-02-22T17:09:16.693Z,101234.22
2023-02-22T17:11:45.582Z,101242.28
2023-02-22T17:14:20.859Z,101247.91
2023-02-22T17:16:49.244Z,101244.97
2023-02-22T17:19:21.295Z,101245.63
2023-02-22T17:21:49.964Z,101247.63
2023-02-22T17:24:29.615Z,101253.59
2023-02-22T17:27:09.924Z,101239.72
2023-02-22T17:29:38.288Z,101241.94
2023-02-22T17:32:06.896Z,101255.97
2023-02-22T17:34:37.057Z,101257.81
2023-02-22T17:37:06.091Z,101246.78
2023-02-22T17:39:34.400Z,101251.16
2023-02-22T17:42:02.780Z,101253.88
2023-02-22T17:44:31.846Z,101266.47
2023-02-22T17:47:01.917Z,101265.41
2023-02-22T17:49:30.341Z,101265.03
2023-02-22T17:52:00.560Z,101272.47
2023-02-22T17:54:30.104Z,101266.63
2023-02-22T17:56:58.673Z,101269.66
2023-02-22T17:59:27.574Z,101265.38
2023-02-22T18:01:56.913Z,101283.81
2023-02-22T18:04:25.290Z,101285.66
2023-02-22T18:06:53.678Z,101286.03
2023-02-22T18:09:23.517Z,101288.88
2023-02-22T18:11:51.856Z,101286.66
2023-02-22T18:14:20.235Z,101285.84
2023-02-22T18:16:48.960Z,101290.06
2023-02-22T18:19:20.041Z,101287.38
2023-02-22T18:21:50.469Z,101288.28
2023-02-22T18:24:18.960Z,101299.56
2023-02-22T18:26:50.487Z,101288.06
2023-02-22T18:29:19.925Z,101295.22
2023-02-22T18:31:48.583Z,101296.91
2023-02-22T18:34:17.777Z,101298.63
2023-02-22T18:36:46.001Z,101300.88
2023-02-22T18:39:14.365Z,101292.66
2023-02-22T18:41:42.686Z,101288.56
2023-02-22T18:44:12.653Z,101298.47
2023-02-22T18:46:41.014Z,101295.16
2023-02-22T18:49:12.334Z,101285.69
2023-02-22T18:51:43.724Z,101296.28
2023-02-22T18:54:13.446Z,101289.97
2023-02-22T18:56:42.005Z,101293.91
2023-02-22T18:59:13.461Z,101293.44
2023-02-22T19:01:49.562Z,101292.09
2023-02-22T19:04:19.553Z,101292.66
2023-02-22T19:06:49.937Z,101293.66
2023-02-22T19:09:18.672Z,101298.25
2023-02-22T19:11:48.665Z,101305.22
2023-02-22T19:14:19.749Z,101294.06
2023-02-22T19:16:50.909Z,101300.06
2023-02-22T19:19:21.047Z,101300.19
2023-02-22T19:21:50.272Z,101301.16
2023-02-22T19:24:21.099Z,101289.91
2023-02-22T19:26:51.648Z,101287.09
2023-02-22T19:29:23.613Z,101303.44
2023-02-22T19:31:54.035Z,101297.25
2023-02-22T19:34:37.459Z,101294.88
2023-02-22T19:37:06.561Z,101297.72
2023-02-22T19:39:38.575Z,101305.66
2023-02-22T19:42:09.659Z,101302.44
2023-02-22T19:44:40.632Z,101302.78
2023-02-22T19:47:10.174Z,101298.75
2023-02-22T19:49:41.501Z,101299.03
2023-02-22T19:52:09.832Z,101303.44
2023-02-22T19:54:38.314Z,101318.09
2023-02-22T19:57:06.851Z,101317.31
2023-02-22T19:59:35.915Z,101315.91
2023-02-22T20:02:06.917Z,101315.19
2023-02-22T20:04:37.628Z,101319.59
2023-02-22T20:07:06.227Z,101326.25
2023-02-22T20:09:37.392Z,101328.19
2023-02-22T20:12:07.096Z,101329.88
2023-02-22T20:14:35.605Z,101334.94
2023-02-22T20:17:07.766Z,101342.31
2023-02-22T20:19:37.360Z,101340.44
2023-02-22T20:22:06.861Z,101350.88
2023-02-22T20:24:35.548Z,101343.78
2023-02-22T20:27:04.136Z,101346.97
2023-02-22T20:29:32.508Z,101352.03
2023-02-22T20:32:02.677Z,101352.81
2023-02-22T20:34:33.764Z,101353.41
2023-02-22T20:37:03.135Z,101355.19
2023-02-22T20:39:32.311Z,101360.00
2023-02-22T20:42:03.728Z,101359.91
2023-02-22T20:44:32.891Z,101361.63
2023-02-22T20:47:03.558Z,101368.50
2023-02-22T20:49:33.883Z,101362.94
2023-02-22T20:52:02.876Z,101354.44
2023-02-22T20:54:31.863Z,101352.59
2023-02-22T20:57:00.613Z,101366.91
2023-02-22T20:59:29.419Z,101347.22
2023-02-22T21:02:00.687Z,101364.19
2023-02-22T21:04:33.185Z,101358.84
2023-02-22T21:07:03.597Z,101365.72
2023-02-22T21:09:34.226Z,101352.03
2023-02-22T21:12:03.530Z,101559.47
2023-02-22T21:14:32.881Z,101473.66
2023-02-22T21:17:04.748Z,101378.75
2023-02-22T21:19:33.598Z,101353.31
2023-02-22T21:22:08.682Z,101334.94
2023-02-22T21:24:38.440Z,101342.19
2023-02-22T21:27:06.972Z,101345.16
2023-02-22T21:29:36.214Z,101353.13
2023-02-22T21:32:05.223Z,101339.84
2023-02-22T21:34:34.026Z,101343.78
2023-02-22T21:37:08.134Z,101342.03
2023-02-22T21:39:37.111Z,101349.38
2023-02-22T21:42:07.405Z,101346.22
2023-02-22T21:44:35.895Z,101337.44
2023-02-22T21:47:04.505Z,101346.03
2023-02-22T21:49:33.387Z,101348.50
2023-02-22T21:52:04.559Z,101354.91
2023-02-22T21:54:34.690Z,101357.00
2023-02-22T21:57:06.328Z,101357.41
2023-02-22T21:59:35.102Z,101358.09
2023-02-22T22:02:03.485Z,101362.59
2023-02-22T22:04:35.136Z,101366.53
2023-02-22T22:07:05.454Z,101368.91
2023-02-22T22:09:37.671Z,101362.88
2023-02-22T22:12:06.717Z,101364.34
2023-02-22T22:14:35.952Z,101378.81
2023-02-22T22:17:07.920Z,101366.25
2023-02-22T22:19:39.421Z,101374.63
2023-02-22T22:22:09.611Z,101367.59
2023-02-22T22:24:41.550Z,101365.72
2023-02-22T22:27:13.042Z,101366.44
2023-02-22T22:29:41.390Z,101367.44
2023-02-22T22:32:10.902Z,101371.28
2023-02-22T22:34:39.482Z,101374.41
2023-02-22T22:37:09.997Z,101370.25
2023-02-22T22:39:38.687Z,101377.75
2023-02-22T22:42:09.206Z,101370.84
2023-02-22T22:44:42.376Z,101380.94
2023-02-22T22:47:13.943Z,101383.94
2023-02-22T22:49:43.804Z,101380.63
2023-02-22T22:52:15.509Z,101374.84
2023-02-22T22:54:44.823Z,101373.16
2023-02-22T22:57:13.775Z,101373.53
2023-02-22T22:59:42.105Z,101385.91
2023-02-22T23:02:11.673Z,101385.22
2023-02-22T23:04:40.067Z,101382.31
2023-02-22T23:07:08.536Z,101381.56
2023-02-22T23:09:39.680Z,101386.56
2023-02-22T23:12:10.114Z,101372.06
2023-02-22T23:14:44.356Z,101382.78
2023-02-22T23:17:16.181Z,101386.34
2023-02-22T23:19:46.002Z,101376.28
2023-02-22T23:22:15.859Z,101380.00
2023-02-22T23:24:46.836Z,101375.91
2023-02-22T23:27:16.133Z,101375.84
2023-02-22T23:29:47.086Z,101374.91
2023-02-22T23:32:16.802Z,101377.59
2023-02-22T23:34:49.869Z,101383.78
2023-02-22T23:37:20.852Z,101384.97
2023-02-22T23:39:54.085Z,101388.88
2023-02-22T23:42:23.359Z,101387.69
2023-02-22T23:44:53.060Z,101394.97
2023-02-22T23:47:21.348Z,101401.91
2023-02-22T23:49:50.147Z,101396.53
2023-02-22T23:52:24.286Z,101416.53
2023-02-22T23:54:54.789Z,101417.19
2023-02-22T23:57:24.851Z,101404.75
2023-02-22T23:59:53.226Z,101404.13
